Time;durP1;ratioP1;P1;durP2;ratioP2;P2;SDS_P1;SDS_P2;PMS_P1;PMS_P2;Temp;Humidity;BMP_temperature;BMP_pressure;BME280_temperature;BME280_humidity;BME280_pressure;Samples;Min_cycle;Max_cycle;Signal;HPM_P1;HPM_P2
2022/08/10 00:01:01;;;;;;;;;;;24.00;45.80;;;;;;4987088;28;19957;-87
2022/08/10 00:03:27;;;;;;;;;;;23.90;46.10;;;;;;4987098;28;19906;-86
2022/08/10 00:05:55;;;;;;;;;;;23.90;46.20;;;;;;4987048;28;20299;-87
2022/08/10 00:08:21;;;;;;;;;;;23.90;46.40;;;;;;4987323;28;19916;-86
2022/08/10 00:10:47;;;;;;;;;;;23.80;46.40;;;;;;4963729;28;19910;-87
2022/08/10 00:13:12;;;;;;;;;;;23.80;46.50;;;;;;4985304;28;20005;-86
2022/08/10 00:15:38;;;;;;;;;;;23.80;46.60;;;;;;4986356;28;19997;-87
2022/08/10 00:18:03;;;;;;;;;;;23.80;46.50;;;;;;4975062;28;20036;-86
2022/08/10 00:20:29;;;;;;;;;;;23.80;46.40;;;;;;4984161;28;19921;-87
2022/08/10 00:22:54;;;;;;;;;;;23.80;46.50;;;;;;4985929;28;19921;-87
2022/08/10 00:25:20;;;;;;;;;;;23.80;47.30;;;;;;4985828;28;19909;-88
2022/08/10 00:27:45;;;;;;;;;;;23.70;46.80;;;;;;4986222;28;19916;-86
2022/08/10 00:30:11;;;;;;;;;;;23.80;46.50;;;;;;4986478;28;19914;-86
2022/08/10 00:32:37;;;;;;;;;;;23.70;46.80;;;;;;4986313;28;19917;-87
2022/08/10 00:35:04;;;;;;;;;;;23.60;47.00;;;;;;4986842;28;19913;-87
2022/08/10 00:37:30;;;;;;;;;;;23.60;47.20;;;;;;4985963;28;20200;-87
2022/08/10 00:39:55;;;;;;;;;;;23.40;47.60;;;;;;4986401;28;20501;-86
2022/08/10 00:42:21;;;;;;;;;;;23.40;47.60;;;;;;4986129;28;19936;-87
2022/08/10 00:44:48;;;;;;;;;;;23.40;47.50;;;;;;4986123;28;19913;-88
2022/08/10 00:47:15;;;;;;;;;;;23.40;47.50;;;;;;4985987;28;19916;-87
2022/08/10 00:49:40;;;;;;;;;;;23.40;47.40;;;;;;4985979;28;19909;-86
2022/08/10 00:52:06;;;;;;;;;;;23.30;47.40;;;;;;4986099;28;19914;-86
2022/08/10 00:54:33;;;;;;;;;;;23.30;47.70;;;;;;4985413;28;20008;-87
2022/08/10 00:56:59;;;;;;;;;;;23.30;47.60;;;;;;4985488;28;19921;-85
2022/08/10 00:59:24;;;;;;;;;;;23.20;47.90;;;;;;4985818;28;19920;-86
2022/08/10 01:01:50;;;;;;;;;;;23.00;48.40;;;;;;4986042;28;19913;-86
2022/08/10 01:04:15;;;;;;;;;;;23.00;48.40;;;;;;4985919;28;19914;-86
2022/08/10 01:06:50;;;;;;;;;;;22.90;48.60;;;;;;4985916;28;20367;-86
2022/08/10 01:09:24;;;;;;;;;;;22.80;48.80;;;;;;4985619;28;19913;-87
2022/08/10 01:11:55;;;;;;;;;;;22.70;49.10;;;;;;4967436;28;20466;-87
2022/08/10 01:14:24;;;;;;;;;;;22.60;49.40;;;;;;4985587;28;20363;-87
2022/08/10 01:16:54;;;;;;;;;;;22.50;49.70;;;;;;4984207;28;19926;-87
2022/08/10 01:19:19;;;;;;;;;;;22.40;49.90;;;;;;4974649;28;20641;-87
2022/08/10 01:21:47;;;;;;;;;;;22.40;50.00;;;;;;4985069;28;19918;-86
2022/08/10 01:24:22;;;;;;;;;;;22.40;50.10;;;;;;4985190;28;20032;-87
2022/08/10 01:27:03;;;;;;;;;;;22.20;50.30;;;;;;4985152;28;20029;-87
2022/08/10 01:29:34;;;;;;;;;;;22.30;50.80;;;;;;4985391;28;19909;-86
2022/08/10 01:32:02;;;;;;;;;;;22.20;50.30;;;;;;4984613;28;19910;-86
2022/08/10 01:34:48;;;;;;;;;;;22.30;50.20;;;;;;4984926;28;19914;-86
2022/08/10 01:37:16;;;;;;;;;;;22.30;50.20;;;;;;4984539;28;20339;-86
2022/08/10 01:39:44;;;;;;;;;;;22.30;50.00;;;;;;4985132;28;19913;-86
2022/08/10 01:42:11;;;;;;;;;;;22.30;50.00;;;;;;4984812;28;19949;-86
2022/08/10 01:44:44;;;;;;;;;;;22.10;50.60;;;;;;4985411;28;19910;-86
2022/08/10 01:50:16;;;;;;;;;;;21.90;50.90;;;;;;4985674;28;19925;-86
2022/08/10 01:52:43;;;;;;;;;;;22.00;50.80;;;;;;4983601;28;19910;-86
2022/08/10 01:55:10;;;;;;;;;;;21.90;51.00;;;;;;4984722;28;20402;-87
2022/08/10 01:57:36;;;;;;;;;;;21.90;51.10;;;;;;4984542;28;19921;-87
2022/08/10 02:00:02;;;;;;;;;;;22.00;50.80;;;;;;4981415;28;19909;-85
2022/08/10 02:02:29;;;;;;;;;;;21.80;51.10;;;;;;4984527;28;19910;-88
2022/08/10 02:04:54;;;;;;;;;;;21.90;51.10;;;;;;4957707;28;19948;-86
2022/08/10 02:07:22;;;;;;;;;;;21.80;51.30;;;;;;4983563;28;19957;-86
2022/08/10 02:09:49;;;;;;;;;;;21.70;51.30;;;;;;4984371;28;19994;-86
2022/08/10 02:12:17;;;;;;;;;;;21.60;51.40;;;;;;4977817;28;19972;-86
2022/08/10 02:14:45;;;;;;;;;;;21.80;51.40;;;;;;4984354;28;19914;-86
2022/08/10 02:17:13;;;;;;;;;;;21.70;51.50;;;;;;4980410;28;20027;-87
2022/08/10 02:19:40;;;;;;;;;;;21.70;51.60;;;;;;4976109;28;19917;-86
2022/08/10 02:22:07;;;;;;;;;;;21.60;51.60;;;;;;4983938;28;19948;-87
2022/08/10 02:24:33;;;;;;;;;;;21.60;51.80;;;;;;4984708;28;19913;-87
2022/08/10 02:26:59;;;;;;;;;;;21.60;51.80;;;;;;4984152;28;19956;-86
2022/08/10 02:29:24;;;;;;;;;;;21.50;52.00;;;;;;4984368;28;19909;-86
2022/08/10 02:31:50;;;;;;;;;;;21.50;52.20;;;;;;4984417;28;19937;-86
2022/08/10 02:34:16;;;;;;;;;;;21.40;52.40;;;;;;4966627;28;19920;-86
2022/08/10 02:36:43;;;;;;;;;;;21.40;52.20;;;;;;4984081;28;20013;-86
2022/08/10 02:39:10;;;;;;;;;;;21.40;52.30;;;;;;4984511;28;19916;-87
2022/08/10 02:41:35;;;;;;;;;;;21.40;52.30;;;;;;4984360;28;19910;-86
2022/08/10 02:44:03;;;;;;;;;;;21.30;52.30;;;;;;4985255;28;20004;-86
2022/08/10 02:46:37;;;;;;;;;;;21.30;52.20;;;;;;4988886;28;19996;-86
2022/08/10 02:49:03;;;;;;;;;;;21.30;52.10;;;;;;4988667;28;19910;-87
2022/08/10 02:51:41;;;;;;;;;;;21.30;52.30;;;;;;4974027;28;19948;-86
2022/08/10 02:54:10;;;;;;;;;;;21.20;52.40;;;;;;4967542;28;19921;-86
2022/08/10 02:56:50;;;;;;;;;;;21.20;52.60;;;;;;4971757;28;20340;-87
2022/08/10 02:59:22;;;;;;;;;;;21.10;53.00;;;;;;4956266;28;20017;-86
2022/08/10 03:01:48;;;;;;;;;;;21.00;53.40;;;;;;4968289;28;19917;-86
2022/08/10 03:04:16;;;;;;;;;;;21.00;53.80;;;;;;4968468;28;19919;-87
2022/08/10 03:06:43;;;;;;;;;;;20.90;53.80;;;;;;4968573;28;19910;-86
2022/08/10 03:09:10;;;;;;;;;;;20.90;53.90;;;;;;4968884;28;20017;-86
2022/08/10 03:11:36;;;;;;;;;;;20.90;54.10;;;;;;4968194;28;19914;-86
2022/08/10 03:14:03;;;;;;;;;;;20.90;53.90;;;;;;4968660;28;19910;-86
2022/08/10 03:16:29;;;;;;;;;;;20.90;53.90;;;;;;4968493;28;19910;-87
2022/08/10 03:18:57;;;;;;;;;;;20.90;54.10;;;;;;4968099;28;19957;-85
2022/08/10 03:21:23;;;;;;;;;;;20.80;54.30;;;;;;4968332;28;19910;-86
2022/08/10 03:23:50;;;;;;;;;;;20.70;54.30;;;;;;4968200;28;19917;-86
2022/08/10 03:26:16;;;;;;;;;;;20.80;54.20;;;;;;4968046;28;19937;-86
2022/08/10 03:28:42;;;;;;;;;;;20.70;54.40;;;;;;4968160;28;19956;-86
2022/08/10 03:31:07;;;;;;;;;;;20.70;54.50;;;;;;4968053;28;19953;-86
2022/08/10 03:33:35;;;;;;;;;;;20.80;54.50;;;;;;4967638;28;19917;-87
2022/08/10 03:36:01;;;;;;;;;;;20.70;55.40;;;;;;4968215;28;19913;-86
2022/08/10 03:38:26;;;;;;;;;;;20.60;54.80;;;;;;4968307;28;19921;-86
2022/08/10 03:40:53;;;;;;;;;;;20.60;54.90;;;;;;4967965;28;20077;-86
2022/08/10 03:43:20;;;;;;;;;;;20.60;54.90;;;;;;4967780;28;19910;-86
2022/08/10 03:45:51;;;;;;;;;;;20.60;55.10;;;;;;4950552;28;19921;-87
2022/08/10 03:48:18;;;;;;;;;;;20.40;55.40;;;;;;4967558;28;19910;-87
2022/08/10 03:50:44;;;;;;;;;;;20.40;55.50;;;;;;4967793;28;20384;-86
2022/08/10 03:53:09;;;;;;;;;;;20.40;55.50;;;;;;4967615;28;20371;-86
2022/08/10 03:55:35;;;;;;;;;;;20.40;55.70;;;;;;4967586;28;19918;-86
2022/08/10 03:58:00;;;;;;;;;;;20.30;55.70;;;;;;4950281;28;20443;-86
2022/08/10 04:00:27;;;;;;;;;;;20.30;55.70;;;;;;4950133;28;19918;-86
2022/08/10 04:02:54;;;;;;;;;;;20.30;55.90;;;;;;4967505;28;19989;-86
2022/08/10 04:05:20;;;;;;;;;;;20.30;55.90;;;;;;4967666;28;19910;-87
2022/08/10 04:07:45;;;;;;;;;;;20.20;56.10;;;;;;4967338;28;19968;-86
2022/08/10 04:10:13;;;;;;;;;;;20.20;56.20;;;;;;4967313;28;19917;-86
2022/08/10 04:12:39;;;;;;;;;;;20.20;55.80;;;;;;4967338;28;19919;-86
2022/08/10 04:15:04;;;;;;;;;;;20.30;55.60;;;;;;4967457;28;19921;-87
2022/08/10 04:17:30;;;;;;;;;;;20.20;55.90;;;;;;4966900;28;20280;-86
2022/08/10 04:19:56;;;;;;;;;;;20.20;56.10;;;;;;4967451;28;19910;-86
2022/08/10 04:22:24;;;;;;;;;;;20.10;56.20;;;;;;4967409;28;19917;-87
2022/08/10 04:24:52;;;;;;;;;;;20.10;56.20;;;;;;4967048;28;19949;-86
2022/08/10 04:27:18;;;;;;;;;;;20.00;56.20;;;;;;4966988;28;20014;-86
2022/08/10 04:29:44;;;;;;;;;;;20.10;55.90;;;;;;4967225;28;19910;-86
2022/08/10 04:32:09;;;;;;;;;;;20.10;56.00;;;;;;4966697;28;19918;-87
2022/08/10 04:34:36;;;;;;;;;;;20.10;56.00;;;;;;4967192;28;20721;-87
2022/08/10 04:37:03;;;;;;;;;;;20.10;56.00;;;;;;4966668;28;19921;-86
2022/08/10 04:39:29;;;;;;;;;;;20.20;55.70;;;;;;4966516;28;19914;-87
2022/08/10 04:41:55;;;;;;;;;;;20.20;55.70;;;;;;4966880;28;20410;-87
2022/08/10 04:44:21;;;;;;;;;;;20.10;55.80;;;;;;4967244;28;19957;-87
2022/08/10 04:46:46;;;;;;;;;;;20.10;55.80;;;;;;4966146;28;20395;-86
2022/08/10 04:49:12;;;;;;;;;;;20.10;55.90;;;;;;4949428;28;19910;-87
2022/08/10 04:51:37;;;;;;;;;;;20.00;56.20;;;;;;4966644;28;20446;-84
2022/08/10 04:54:03;;;;;;;;;;;20.00;56.20;;;;;;4966913;28;19925;-87
2022/08/10 04:56:29;;;;;;;;;;;20.00;56.50;;;;;;4966597;28;19993;-87
2022/08/10 04:58:55;;;;;;;;;;;19.90;56.50;;;;;;4966553;28;19929;-86
2022/08/10 05:01:21;;;;;;;;;;;20.00;56.50;;;;;;4966251;28;19917;-87
2022/08/10 05:03:46;;;;;;;;;;;20.20;56.10;;;;;;4966889;28;19910;-87
2022/08/10 05:06:12;;;;;;;;;;;20.60;55.10;;;;;;4966524;28;19906;-85
2022/08/10 05:08:37;;;;;;;;;;;20.90;54.50;;;;;;4966366;28;19917;-87
2022/08/10 05:11:03;;;;;;;;;;;21.10;53.80;;;;;;4966596;28;20006;-86
2022/08/10 05:13:28;;;;;;;;;;;21.40;53.20;;;;;;4966596;28;20009;-87
2022/08/10 05:15:55;;;;;;;;;;;21.50;53.10;;;;;;4966330;28;19957;-87
2022/08/10 05:18:21;;;;;;;;;;;21.70;52.90;;;;;;4966136;28;20498;-86
2022/08/10 05:20:46;;;;;;;;;;;21.90;52.70;;;;;;4966331;28;19957;-86
2022/08/10 05:23:12;;;;;;;;;;;22.10;52.50;;;;;;4966048;28;20001;-86
2022/08/10 05:25:37;;;;;;;;;;;22.20;52.40;;;;;;4966554;28;19916;-86
2022/08/10 05:28:03;;;;;;;;;;;22.30;52.00;;;;;;4966428;28;19917;-86
2022/08/10 05:30:28;;;;;;;;;;;22.60;52.40;;;;;;4966148;28;20363;-86
2022/08/10 05:32:54;;;;;;;;;;;22.80;51.50;;;;;;4948826;28;19917;-86
2022/08/10 05:35:20;;;;;;;;;;;23.10;51.00;;;;;;4965994;28;19910;-86
2022/08/10 05:37:46;;;;;;;;;;;23.20;51.30;;;;;;4966173;28;19918;-87
2022/08/10 05:40:11;;;;;;;;;;;23.50;50.50;;;;;;4966016;28;19910;-87
2022/08/10 05:42:37;;;;;;;;;;;23.50;50.50;;;;;;4948400;28;20008;-87
2022/08/10 05:45:03;;;;;;;;;;;23.90;50.00;;;;;;4948053;28;19917;-86
2022/08/10 05:47:28;;;;;;;;;;;23.90;50.00;;;;;;4948227;28;20279;-87
2022/08/10 05:49:54;;;;;;;;;;;24.00;49.50;;;;;;4965824;28;19910;-86
2022/08/10 05:52:20;;;;;;;;;;;24.40;49.10;;;;;;4965499;28;19918;-87
2022/08/10 05:54:46;;;;;;;;;;;24.60;49.10;;;;;;4965716;28;19928;-87
2022/08/10 05:57:14;;;;;;;;;;;24.60;49.00;;;;;;4965951;28;19925;-87
2022/08/10 05:59:45;;;;;;;;;;;24.70;48.70;;;;;;4947931;28;20095;-87
2022/08/10 06:02:12;;;;;;;;;;;24.80;48.80;;;;;;4965604;28;20588;-86
2022/08/10 06:04:40;;;;;;;;;;;25.20;48.40;;;;;;4965489;28;19956;-86
2022/08/10 06:07:06;;;;;;;;;;;25.20;48.30;;;;;;4965309;28;19925;-86
2022/08/10 06:09:32;;;;;;;;;;;25.60;47.70;;;;;;4965493;28;19910;-87
2022/08/10 06:11:59;;;;;;;;;;;25.90;47.70;;;;;;4965230;28;19910;-87
2022/08/10 06:17:10;;;;;;;;;;;26.00;47.40;;;;;;4965241;28;19998;-87
2022/08/10 06:19:37;;;;;;;;;;;25.90;47.20;;;;;;4964595;28;19937;-87
2022/08/10 06:22:02;;;;;;;;;;;26.00;47.00;;;;;;4965375;28;20733;-87
2022/08/10 06:24:29;;;;;;;;;;;26.50;46.70;;;;;;4947723;28;19910;-87
2022/08/10 06:26:54;;;;;;;;;;;26.60;46.70;;;;;;4965087;28;19917;-88
2022/08/10 06:29:21;;;;;;;;;;;26.50;46.50;;;;;;4965400;28;19909;-87
2022/08/10 06:31:48;;;;;;;;;;;26.90;45.90;;;;;;4947787;28;20299;-87
2022/08/10 06:34:14;;;;;;;;;;;27.10;45.90;;;;;;4965759;28;19937;-87
2022/08/10 06:36:41;;;;;;;;;;;27.50;45.40;;;;;;4965262;28;19944;-87
2022/08/10 06:39:06;;;;;;;;;;;27.50;45.60;;;;;;4965651;28;20450;-87
2022/08/10 06:41:38;;;;;;;;;;;27.80;45.00;;;;;;4965119;28;19913;-87
2022/08/10 06:44:09;;;;;;;;;;;28.10;44.80;;;;;;4965110;28;20644;-87
2022/08/10 06:46:35;;;;;;;;;;;28.40;44.80;;;;;;4965361;28;19910;-87
2022/08/10 06:49:03;;;;;;;;;;;28.30;44.50;;;;;;4965366;28;19910;-87
2022/08/10 06:51:29;;;;;;;;;;;28.50;44.20;;;;;;4947342;28;19910;-86
2022/08/10 06:53:58;;;;;;;;;;;28.40;44.10;;;;;;4965144;28;19996;-87
2022/08/10 06:56:28;;;;;;;;;;;28.50;44.30;;;;;;4964774;28;20001;-87
2022/08/10 06:59:05;;;;;;;;;;;28.60;43.70;;;;;;4965168;28;19918;-88
2022/08/10 07:01:35;;;;;;;;;;;29.00;43.60;;;;;;4964894;28;19949;-86
2022/08/10 07:04:04;;;;;;;;;;;29.30;43.50;;;;;;4965488;28;19913;-87
2022/08/10 07:06:30;;;;;;;;;;;29.60;43.40;;;;;;4947620;28;20868;-88
2022/08/10 07:08:55;;;;;;;;;;;29.80;42.60;;;;;;4964905;28;19914;-88
2022/08/10 07:11:21;;;;;;;;;;;30.40;42.40;;;;;;4964672;28;19910;-87
2022/08/10 07:13:47;;;;;;;;;;;30.50;42.20;;;;;;4964883;28;19914;-87
2022/08/10 07:16:14;;;;;;;;;;;30.60;41.40;;;;;;4964763;28;19910;-87
2022/08/10 07:18:41;;;;;;;;;;;30.30;41.80;;;;;;4964614;28;19965;-87
2022/08/10 07:21:06;;;;;;;;;;;30.50;41.50;;;;;;4964945;28;19996;-88
2022/08/10 07:23:33;;;;;;;;;;;31.20;41.70;;;;;;4964782;28;20675;-87
2022/08/10 07:25:59;;;;;;;;;;;31.10;41.60;;;;;;4964602;28;19910;-88
2022/08/10 07:28:25;;;;;;;;;;;31.50;40.90;;;;;;4964688;28;19910;-87
2022/08/10 07:30:52;;;;;;;;;;;31.40;40.70;;;;;;4966728;28;19910;-88
2022/08/10 07:33:19;;;;;;;;;;;31.50;41.00;;;;;;4968303;28;20002;-87
2022/08/10 07:35:46;;;;;;;;;;;32.30;40.70;;;;;;4950881;28;20446;-87
2022/08/10 07:38:16;;;;;;;;;;;32.20;40.20;;;;;;4967896;28;19918;-87
2022/08/10 07:40:42;;;;;;;;;;;32.20;39.70;;;;;;4968113;28;19906;-88
2022/08/10 07:43:08;;;;;;;;;;;32.20;39.80;;;;;;4968273;28;19941;-87
2022/08/10 07:45:34;;;;;;;;;;;33.20;39.40;;;;;;4968209;28;19964;-87
2022/08/10 07:48:01;;;;;;;;;;;32.50;40.10;;;;;;4968184;28;19941;-88
2022/08/10 07:50:28;;;;;;;;;;;33.00;39.90;;;;;;4967979;28;20373;-87
2022/08/10 07:52:56;;;;;;;;;;;33.90;39.20;;;;;;4968025;28;19926;-88
2022/08/10 07:55:22;;;;;;;;;;;34.30;38.60;;;;;;4967176;28;19976;-88
2022/08/10 07:57:49;;;;;;;;;;;34.30;38.90;;;;;;4967707;28;19953;-88
2022/08/10 08:00:16;;;;;;;;;;;34.60;39.20;;;;;;4950359;28;19961;-87
2022/08/10 08:02:45;;;;;;;;;;;34.00;38.70;;;;;;4967596;28;19996;-88
2022/08/10 08:05:12;;;;;;;;;;;34.60;38.70;;;;;;4967901;28;19969;-88
2022/08/10 08:07:38;;;;;;;;;;;35.00;38.80;;;;;;4966516;28;19921;-88
2022/08/10 08:10:05;;;;;;;;;;;35.20;38.00;;;;;;4967328;28;19910;-87
2022/08/10 08:12:32;;;;;;;;;;;35.10;38.20;;;;;;4967150;28;19914;-88
2022/08/10 08:14:58;;;;;;;;;;;35.10;38.40;;;;;;4966383;28;19917;-88
2022/08/10 08:17:25;;;;;;;;;;;35.50;37.90;;;;;;4967062;28;20581;-88
2022/08/10 08:19:52;;;;;;;;;;;35.80;37.40;;;;;;4966921;28;19925;-88
2022/08/10 08:22:17;;;;;;;;;;;36.80;37.30;;;;;;4966914;28;19921;-87
2022/08/10 08:24:44;;;;;;;;;;;36.40;36.90;;;;;;4966912;28;19910;-87
2022/08/10 08:27:11;;;;;;;;;;;36.80;37.50;;;;;;4967057;28;20044;-87
2022/08/10 08:29:40;;;;;;;;;;;37.10;36.70;;;;;;4967242;28;19910;-87
2022/08/10 08:32:05;;;;;;;;;;;37.60;37.20;;;;;;4966911;28;20434;-87
2022/08/10 08:34:31;;;;;;;;;;;37.40;36.70;;;;;;4967435;28;19917;-87
2022/08/10 08:36:59;;;;;;;;;;;37.40;37.10;;;;;;4949245;28;19917;-87
2022/08/10 08:39:25;;;;;;;;;;;36.50;37.30;;;;;;4966823;28;19917;-87
2022/08/10 08:42:03;;;;;;;;;;;37.10;37.30;;;;;;4966074;28;19910;-87
2022/08/10 08:44:38;;;;;;;;;;;38.20;36.70;;;;;;4967124;28;19926;-86
2022/08/10 08:47:22;;;;;;;;;;;37.60;36.70;;;;;;4966814;28;19910;-87
2022/08/10 08:49:59;;;;;;;;;;;37.70;36.80;;;;;;4966636;28;19995;-86
2022/08/10 08:52:40;;;;;;;;;;;37.40;36.60;;;;;;4966327;28;19910;-87
2022/08/10 08:55:18;;;;;;;;;;;38.70;36.40;;;;;;4966855;28;19928;-87
2022/08/10 08:57:54;;;;;;;;;;;38.50;36.30;;;;;;4954511;28;19918;-87
2022/08/10 09:00:22;;;;;;;;;;;38.80;36.10;;;;;;4949267;28;19910;-87
2022/08/10 09:02:54;;;;;;;;;;;38.70;36.30;;;;;;4966344;28;20515;-87
2022/08/10 09:05:38;;;;;;;;;;;38.70;36.80;;;;;;4966887;28;19910;-86
2022/08/10 09:08:23;;;;;;;;;;;39.40;36.10;;;;;;4966002;28;20307;-87
2022/08/10 09:10:59;;;;;;;;;;;39.90;35.40;;;;;;4966584;28;19910;-86
2022/08/10 09:13:28;;;;;;;;;;;39.60;35.70;;;;;;4953508;28;20373;-87
2022/08/10 09:15:59;;;;;;;;;;;39.50;35.20;;;;;;4966321;28;19921;-87
2022/08/10 09:18:32;;;;;;;;;;;40.20;35.30;;;;;;4965968;28;19924;-87
2022/08/10 09:21:18;;;;;;;;;;;40.30;35.10;;;;;;4966161;28;19921;-87
2022/08/10 09:23:51;;;;;;;;;;;40.60;34.90;;;;;;4965672;28;19910;-87
2022/08/10 09:26:21;;;;;;;;;;;40.20;34.80;;;;;;4965749;28;19914;-86
2022/08/10 09:28:48;;;;;;;;;;;39.70;34.30;;;;;;4948105;28;20381;-87
2022/08/10 09:31:17;;;;;;;;;;;41.00;34.10;;;;;;4966081;28;20698;-87
2022/08/10 09:33:52;;;;;;;;;;;40.50;34.30;;;;;;4966082;28;19910;-86
2022/08/10 09:36:37;;;;;;;;;;;40.90;34.40;;;;;;4948107;28;19910;-86
2022/08/10 09:39:03;;;;;;;;;;;41.20;33.90;;;;;;4953590;28;19996;-86
2022/08/10 09:41:28;;;;;;;;;;;41.00;33.90;;;;;;4965616;28;20470;-86
2022/08/10 09:44:03;;;;;;;;;;;41.40;33.80;;;;;;4948141;28;19910;-86
2022/08/10 09:46:38;;;;;;;;;;;41.10;33.80;;;;;;4965943;28;20594;-86
2022/08/10 09:49:04;;;;;;;;;;;40.70;33.60;;;;;;4965897;28;19921;-86
2022/08/10 09:51:29;;;;;;;;;;;41.90;33.60;;;;;;4965279;28;19910;-85
2022/08/10 09:53:59;;;;;;;;;;;42.20;33.30;;;;;;4965313;28;20005;-86
2022/08/10 09:56:31;;;;;;;;;;;42.10;32.40;;;;;;4965428;28;20462;-86
2022/08/10 09:59:11;;;;;;;;;;;42.70;33.20;;;;;;4965013;28;19933;-87
2022/08/10 10:01:59;;;;;;;;;;;43.70;32.40;;;;;;4952729;28;19910;-86
2022/08/10 10:04:37;;;;;;;;;;;43.00;32.90;;;;;;4964613;28;20371;-87
2022/08/10 10:07:05;;;;;;;;;;;43.50;32.70;;;;;;4965315;28;19914;-87
2022/08/10 10:09:53;;;;;;;;;;;43.60;32.80;;;;;;4965332;28;19914;-86
2022/08/10 10:12:25;;;;;;;;;;;43.00;32.40;;;;;;4947230;28;19909;-86
2022/08/10 10:18:07;;;;;;;;;;;42.50;32.60;;;;;;4965321;28;20454;-86
2022/08/10 10:20:38;;;;;;;;;;;42.00;32.50;;;;;;4894244;29;19911;-87
2022/08/10 10:23:09;;;;;;;;;;;40.70;32.70;;;;;;4904334;29;19911;-86
2022/08/10 10:25:49;;;;;;;;;;;40.90;32.70;;;;;;4904958;29;20321;-87
2022/08/10 10:28:21;;;;;;;;;;;39.10;33.20;;;;;;4904961;29;19911;-85
2022/08/10 10:30:53;;;;;;;;;;;37.50;33.80;;;;;;4905145;29;19911;-86
2022/08/10 10:33:32;;;;;;;;;;;36.50;34.10;;;;;;4904241;29;19979;-87
2022/08/10 10:35:58;;;;;;;;;;;36.80;35.20;;;;;;4904782;29;19915;-87
2022/08/10 10:38:27;;;;;;;;;;;36.40;35.00;;;;;;4904706;29;19919;-86
2022/08/10 10:40:53;;;;;;;;;;;36.20;35.30;;;;;;4912898;29;19911;-87
2022/08/10 10:43:23;;;;;;;;;;;36.10;35.10;;;;;;4909858;29;20486;-86
2022/08/10 10:46:01;;;;;;;;;;;36.30;35.90;;;;;;4904891;29;20102;-86
2022/08/10 10:48:26;;;;;;;;;;;36.30;34.40;;;;;;4904310;29;19917;-87
2022/08/10 10:51:04;;;;;;;;;;;36.20;34.60;;;;;;4904495;29;19911;-86
2022/08/10 10:53:48;;;;;;;;;;;36.10;34.90;;;;;;4904594;29;20030;-87
2022/08/10 10:56:23;;;;;;;;;;;35.90;34.70;;;;;;4902794;29;20503;-86
2022/08/10 10:58:52;;;;;;;;;;;35.50;35.40;;;;;;4960818;28;19918;-86
2022/08/10 11:01:20;;;;;;;;;;;35.70;35.10;;;;;;4964630;28;20485;-87
2022/08/10 11:03:46;;;;;;;;;;;35.90;35.90;;;;;;4964544;28;19910;-86
2022/08/10 11:06:20;;;;;;;;;;;35.90;36.10;;;;;;4967071;28;20299;-86
2022/08/10 11:08:50;;;;;;;;;;;36.00;36.10;;;;;;4968602;28;19909;-86
2022/08/10 11:11:19;;;;;;;;;;;35.70;35.10;;;;;;4968373;28;19981;-86
2022/08/10 11:13:44;;;;;;;;;;;35.20;36.00;;;;;;4968554;28;19996;-86
2022/08/10 11:16:35;;;;;;;;;;;35.20;36.10;;;;;;4966966;28;20379;-86
2022/08/10 11:19:00;;;;;;;;;;;35.40;36.10;;;;;;4967987;28;19917;-87
2022/08/10 11:21:39;;;;;;;;;;;35.40;36.90;;;;;;4966685;28;20434;-87
2022/08/10 11:24:16;;;;;;;;;;;35.40;36.20;;;;;;4968445;28;19945;-86
2022/08/10 11:26:50;;;;;;;;;;;34.60;36.30;;;;;;4968379;28;19914;-87
2022/08/10 11:29:28;;;;;;;;;;;34.60;36.90;;;;;;4968341;28;19916;-87
2022/08/10 11:32:00;;;;;;;;;;;34.70;36.40;;;;;;4967442;28;20512;-86
2022/08/10 11:34:45;;;;;;;;;;;34.50;36.70;;;;;;4968158;28;20389;-86
2022/08/10 11:37:29;;;;;;;;;;;34.60;35.60;;;;;;4967633;28;19917;-86
2022/08/10 11:40:08;;;;;;;;;;;34.40;35.50;;;;;;4968320;28;19952;-86
2022/08/10 11:42:42;;;;;;;;;;;34.20;35.80;;;;;;4968223;28;20367;-86
2022/08/10 11:45:09;;;;;;;;;;;34.40;34.80;;;;;;4968172;28;19914;-85
2022/08/10 11:47:46;;;;;;;;;;;34.20;35.20;;;;;;4967598;28;19910;-86
2022/08/10 11:50:15;;;;;;;;;;;34.10;34.90;;;;;;4967655;28;19964;-86
2022/08/10 11:53:08;;;;;;;;;;;34.00;35.60;;;;;;4967425;28;19932;-85
2022/08/10 11:55:34;;;;;;;;;;;34.60;36.50;;;;;;4967407;28;20774;-86
2022/08/10 11:59:55;;;;;;;;;;;34.40;35.50;;;;;;4967380;28;19922;-86
2022/08/10 12:00:49;;;;;;;;;;;34.00;35.60;;;;;;4966928;28;20683;-86
2022/08/10 12:03:15;;;;;;;;;;;34.10;35.80;;;;;;4967884;28;19914;-86
2022/08/10 12:05:41;;;;;;;;;;;34.10;35.10;;;;;;4967621;28;19925;-87
2022/08/10 12:08:07;;;;;;;;;;;34.00;35.10;;;;;;4967022;28;20022;-86
2022/08/10 12:10:34;;;;;;;;;;;34.20;34.70;;;;;;4949709;28;20470;-86
2022/08/10 12:12:59;;;;;;;;;;;34.10;34.60;;;;;;4967240;28;19999;-86
2022/08/10 12:15:28;;;;;;;;;;;34.20;35.70;;;;;;4966968;28;20311;-86
2022/08/10 12:17:57;;;;;;;;;;;33.90;34.60;;;;;;4965641;28;19914;-85
2022/08/10 12:20:25;;;;;;;;;;;33.90;34.20;;;;;;4967206;28;20311;-86
2022/08/10 12:23:12;;;;;;;;;;;34.10;33.80;;;;;;4966877;28;19910;-86
2022/08/10 12:25:40;;;;;;;;;;;34.20;34.00;;;;;;4956424;28;20027;-86
2022/08/10 12:28:10;;;;;;;;;;;34.10;34.50;;;;;;4966985;28;19914;-86
2022/08/10 12:30:40;;;;;;;;;;;34.10;33.20;;;;;;4966947;28;19929;-86
2022/08/10 12:33:12;;;;;;;;;;;34.00;34.20;;;;;;4967016;28;19910;-86
2022/08/10 12:35:49;;;;;;;;;;;34.10;33.70;;;;;;4967173;28;20044;-86
2022/08/10 12:38:20;;;;;;;;;;;34.20;33.80;;;;;;4966386;28;19925;-86
2022/08/10 12:40:54;;;;;;;;;;;33.80;33.30;;;;;;4966630;28;19910;-86
2022/08/10 12:43:31;;;;;;;;;;;34.10;35.80;;;;;;4966406;28;20371;-86
2022/08/10 12:46:12;;;;;;;;;;;34.30;34.80;;;;;;4966495;28;19975;-87
2022/08/10 12:48:47;;;;;;;;;;;34.30;34.50;;;;;;4966499;28;19914;-87
2022/08/10 12:51:12;;;;;;;;;;;34.10;34.30;;;;;;4966976;28;19910;-87
2022/08/10 12:53:42;;;;;;;;;;;34.00;34.00;;;;;;4966430;28;19910;-87
2022/08/10 12:56:08;;;;;;;;;;;34.00;33.70;;;;;;4966162;28;19929;-86
2022/08/10 12:58:36;;;;;;;;;;;33.90;34.00;;;;;;4965858;28;19917;-86
2022/08/10 13:01:04;;;;;;;;;;;33.70;33.60;;;;;;4966497;28;19996;-87
2022/08/10 13:03:31;;;;;;;;;;;33.40;33.90;;;;;;4966322;28;20469;-86
2022/08/10 13:05:57;;;;;;;;;;;33.60;33.20;;;;;;4967075;28;19910;-86
2022/08/10 13:11:16;;;;;;;;;;;33.50;33.70;;;;;;4886901;29;19911;-87
2022/08/10 13:13:44;;;;;;;;;;;33.80;33.60;;;;;;4886596;29;19961;-86
2022/08/10 13:16:10;;;;;;;;;;;33.50;33.80;;;;;;4886692;29;20047;-86
2022/08/10 13:18:37;;;;;;;;;;;33.50;33.40;;;;;;4886899;29;19927;-86
2022/08/10 13:21:05;;;;;;;;;;;33.50;33.70;;;;;;4886697;29;19911;-85
2022/08/10 13:23:34;;;;;;;;;;;33.40;32.70;;;;;;4886333;29;19911;-87
2022/08/10 13:26:01;;;;;;;;;;;33.30;32.30;;;;;;4886704;29;19915;-87
2022/08/10 13:28:33;;;;;;;;;;;33.40;31.00;;;;;;4885558;29;20298;-87
2022/08/10 13:31:01;;;;;;;;;;;33.30;32.20;;;;;;4886710;29;20346;-85
2022/08/10 13:33:27;;;;;;;;;;;33.50;31.60;;;;;;4886553;29;19911;-86
2022/08/10 13:35:56;;;;;;;;;;;33.30;32.20;;;;;;4886907;29;20418;-86
2022/08/10 13:38:23;;;;;;;;;;;33.60;31.30;;;;;;4886411;29;19919;-86
2022/08/10 13:40:49;;;;;;;;;;;33.50;32.00;;;;;;4871345;29;19955;-86
2022/08/10 13:43:15;;;;;;;;;;;33.30;34.10;;;;;;4886664;29;19935;-86
2022/08/10 13:45:41;;;;;;;;;;;33.90;34.90;;;;;;4886702;29;20014;-87
2022/08/10 13:48:13;;;;;;;;;;;33.80;34.40;;;;;;4927023;28;20005;-87
2022/08/10 13:50:39;;;;;;;;;;;33.70;34.90;;;;;;4965251;28;19960;-86
2022/08/10 13:53:06;;;;;;;;;;;33.60;35.60;;;;;;4965562;28;19916;-87
2022/08/10 13:55:32;;;;;;;;;;;33.80;34.10;;;;;;4965232;28;19930;-87
2022/08/10 13:58:00;;;;;;;;;;;33.80;34.00;;;;;;4965026;28;20355;-86
2022/08/10 14:00:30;;;;;;;;;;;33.80;34.50;;;;;;4965578;28;19917;-87
2022/08/10 14:03:04;;;;;;;;;;;33.50;33.80;;;;;;4965374;28;20571;-85
2022/08/10 14:05:31;;;;;;;;;;;33.60;34.40;;;;;;4965347;28;19953;-86
2022/08/10 14:07:57;;;;;;;;;;;33.50;33.80;;;;;;4964623;28;20002;-86
2022/08/10 14:10:23;;;;;;;;;;;33.70;33.10;;;;;;4947773;28;20001;-86
2022/08/10 14:12:49;;;;;;;;;;;33.40;34.80;;;;;;4964672;28;20323;-85
2022/08/10 14:15:16;;;;;;;;;;;33.20;33.20;;;;;;4965165;28;19993;-85
2022/08/10 14:17:43;;;;;;;;;;;33.10;33.40;;;;;;4965051;28;19922;-86
2022/08/10 14:20:09;;;;;;;;;;;33.00;34.20;;;;;;4965141;28;19910;-86
2022/08/10 14:22:36;;;;;;;;;;;33.10;35.60;;;;;;4947791;28;19910;-87
2022/08/10 14:25:05;;;;;;;;;;;33.00;33.70;;;;;;4965219;28;19980;-86
2022/08/10 14:27:31;;;;;;;;;;;33.10;35.00;;;;;;4965087;28;19910;-85
2022/08/10 14:29:57;;;;;;;;;;;33.60;33.20;;;;;;4965679;28;19913;-86
2022/08/10 14:32:25;;;;;;;;;;;33.60;33.20;;;;;;4965472;28;19910;-86
2022/08/10 14:34:52;;;;;;;;;;;33.60;33.30;;;;;;4965425;28;19906;-86
2022/08/10 14:37:28;;;;;;;;;;;33.30;32.70;;;;;;4964893;28;19914;-86